sensor_id;sensor_type;location;lat;lon;timestamp;P1;durP1;ratioP1;P2;durP2;ratioP2
52248;SDS011;38541;48.130;8.378;2024-03-23T00:53:11;2.63;;;1.48;;
52248;SDS011;38541;48.130;8.378;2024-03-23T00:55:37;1.60;;;1.50;;
52248;SDS011;38541;48.130;8.378;2024-03-23T00:58:03;1.48;;;1.35;;
52248;SDS011;38541;48.130;8.378;2024-03-23T01:00:28;1.70;;;1.55;;
52248;SDS011;38541;48.130;8.378;2024-03-23T01:02:54;2.08;;;1.80;;
52248;SDS011;38541;48.130;8.378;2024-03-23T01:05:19;1.63;;;1.52;;
52248;SDS011;38541;48.130;8.378;2024-03-23T01:07:45;3.20;;;2.03;;
52248;SDS011;38541;48.130;8.378;2024-03-23T01:10:10;2.92;;;1.92;;
52248;SDS011;38541;48.130;8.378;2024-03-23T01:12:36;1.77;;;1.60;;
52248;SDS011;38541;48.130;8.378;2024-03-23T01:15:02;1.52;;;1.38;;
52248;SDS011;38541;48.130;8.378;2024-03-23T01:17:28;2.40;;;1.95;;
52248;SDS011;38541;48.130;8.378;2024-03-23T01:19:53;2.50;;;2.28;;
52248;SDS011;38541;48.130;8.378;2024-03-23T01:22:19;2.28;;;2.08;;
52248;SDS011;38541;48.130;8.378;2024-03-23T01:24:44;1.88;;;1.60;;
52248;SDS011;38541;48.130;8.378;2024-03-23T01:27:10;1.73;;;1.60;;
52248;SDS011;38541;48.130;8.378;2024-03-23T01:29:35;2.38;;;2.20;;
52248;SDS011;38541;48.130;8.378;2024-03-23T01:32:01;2.10;;;1.90;;
52248;SDS011;38541;48.130;8.378;2024-03-23T01:34:26;3.00;;;2.25;;
52248;SDS011;38541;48.130;8.378;2024-03-23T01:36:53;3.15;;;1.73;;
52248;SDS011;38541;48.130;8.378;2024-03-23T01:39:19;2.30;;;2.10;;
52248;SDS011;38541;48.130;8.378;2024-03-23T01:41:44;2.10;;;2.00;;
52248;SDS011;38541;48.130;8.378;2024-03-23T01:44:10;2.40;;;2.20;;
52248;SDS011;38541;48.130;8.378;2024-03-23T01:46:39;2.65;;;2.45;;
52248;SDS011;38541;48.130;8.378;2024-03-23T01:49:06;2.95;;;2.40;;
52248;SDS011;38541;48.130;8.378;2024-03-23T01:51:33;3.17;;;2.75;;
52248;SDS011;38541;48.130;8.378;2024-03-23T01:53:59;2.55;;;2.35;;
52248;SDS011;38541;48.130;8.378;2024-03-23T01:56:28;2.55;;;2.35;;
52248;SDS011;38541;48.130;8.378;2024-03-23T01:59:04;3.28;;;2.95;;
52248;SDS011;38541;48.130;8.378;2024-03-23T02:01:30;2.47;;;2.28;;
52248;SDS011;38541;48.130;8.378;2024-03-23T02:03:56;6.70;;;2.80;;
52248;SDS011;38541;48.130;8.378;2024-03-23T02:06:24;3.35;;;2.55;;
52248;SDS011;38541;48.130;8.378;2024-03-23T02:08:50;6.03;;;3.08;;
52248;SDS011;38541;48.130;8.378;2024-03-23T02:11:16;2.75;;;2.50;;
52248;SDS011;38541;48.130;8.378;2024-03-23T02:13:41;3.42;;;2.72;;
52248;SDS011;38541;48.130;8.378;2024-03-23T02:16:07;4.70;;;3.17;;
52248;SDS011;38541;48.130;8.378;2024-03-23T02:18:33;5.45;;;2.70;;
52248;SDS011;38541;48.130;8.378;2024-03-23T02:20:58;2.95;;;2.75;;
52248;SDS011;38541;48.130;8.378;2024-03-23T02:23:24;3.92;;;2.67;;
52248;SDS011;38541;48.130;8.378;2024-03-23T02:25:50;3.47;;;2.40;;
52248;SDS011;38541;48.130;8.378;2024-03-23T02:28:16;3.22;;;2.92;;
52248;SDS011;38541;48.130;8.378;2024-03-23T02:30:42;4.13;;;3.05;;
52248;SDS011;38541;48.130;8.378;2024-03-23T02:33:08;2.85;;;2.60;;
52248;SDS011;38541;48.130;8.378;2024-03-23T02:35:34;3.42;;;3.00;;
52248;SDS011;38541;48.130;8.378;2024-03-23T02:37:59;2.58;;;2.38;;
52248;SDS011;38541;48.130;8.378;2024-03-23T02:40:25;3.33;;;2.72;;
52248;SDS011;38541;48.130;8.378;2024-03-23T02:42:51;3.60;;;2.60;;
52248;SDS011;38541;48.130;8.378;2024-03-23T02:45:17;2.60;;;2.40;;
52248;SDS011;38541;48.130;8.378;2024-03-23T02:47:43;3.03;;;2.53;;
52248;SDS011;38541;48.130;8.378;2024-03-23T02:50:08;3.85;;;2.58;;
52248;SDS011;38541;48.130;8.378;2024-03-23T02:52:34;4.63;;;2.67;;
52248;SDS011;38541;48.130;8.378;2024-03-23T02:55:01;3.80;;;2.80;;
52248;SDS011;38541;48.130;8.378;2024-03-23T02:57:27;2.45;;;2.25;;
52248;SDS011;38541;48.130;8.378;2024-03-23T02:59:53;6.25;;;2.75;;
52248;SDS011;38541;48.130;8.378;2024-03-23T03:02:19;4.55;;;2.30;;
52248;SDS011;38541;48.130;8.378;2024-03-23T03:04:45;3.42;;;2.28;;
52248;SDS011;38541;48.130;8.378;2024-03-23T03:07:10;2.20;;;2.00;;
52248;SDS011;38541;48.130;8.378;2024-03-23T03:09:36;3.13;;;2.22;;
52248;SDS011;38541;48.130;8.378;2024-03-23T03:12:04;2.40;;;2.03;;
52248;SDS011;38541;48.130;8.378;2024-03-23T03:14:30;2.60;;;1.95;;
52248;SDS011;38541;48.130;8.378;2024-03-23T03:16:56;1.73;;;1.63;;
52248;SDS011;38541;48.130;8.378;2024-03-23T03:19:22;2.90;;;1.77;;
52248;SDS011;38541;48.130;8.378;2024-03-23T03:21:47;2.03;;;1.92;;
52248;SDS011;38541;48.130;8.378;2024-03-23T03:24:13;2.30;;;2.10;;
52248;SDS011;38541;48.130;8.378;2024-03-23T03:26:39;2.30;;;2.20;;
52248;SDS011;38541;48.130;8.378;2024-03-23T03:29:04;2.65;;;1.90;;
52248;SDS011;38541;48.130;8.378;2024-03-23T03:31:30;2.63;;;2.30;;
52248;SDS011;38541;48.130;8.378;2024-03-23T03:33:56;2.35;;;2.15;;
52248;SDS011;38541;48.130;8.378;2024-03-23T03:36:21;3.40;;;2.25;;
52248;SDS011;38541;48.130;8.378;2024-03-23T03:38:47;2.67;;;2.00;;
52248;SDS011;38541;48.130;8.378;2024-03-23T03:41:13;3.03;;;2.60;;
52248;SDS011;38541;48.130;8.378;2024-03-23T03:43:38;2.25;;;2.05;;
52248;SDS011;38541;48.130;8.378;2024-03-23T03:46:04;3.63;;;2.65;;
52248;SDS011;38541;48.130;8.378;2024-03-23T03:48:30;3.17;;;2.50;;
52248;SDS011;38541;48.130;8.378;2024-03-23T03:50:56;2.83;;;2.60;;
52248;SDS011;38541;48.130;8.378;2024-03-23T03:53:23;2.75;;;2.38;;
52248;SDS011;38541;48.130;8.378;2024-03-23T03:55:48;2.63;;;2.22;;
52248;SDS011;38541;48.130;8.378;2024-03-23T03:58:14;2.97;;;2.67;;
52248;SDS011;38541;48.130;8.378;2024-03-23T04:00:39;3.30;;;2.35;;
52248;SDS011;38541;48.130;8.378;2024-03-23T04:03:05;3.97;;;2.63;;
52248;SDS011;38541;48.130;8.378;2024-03-23T04:05:31;4.25;;;2.80;;
52248;SDS011;38541;48.130;8.378;2024-03-23T04:07:56;4.05;;;2.10;;
52248;SDS011;38541;48.130;8.378;2024-03-23T04:10:22;2.85;;;2.17;;
52248;SDS011;38541;48.130;8.378;2024-03-23T04:12:47;2.65;;;2.15;;
52248;SDS011;38541;48.130;8.378;2024-03-23T04:15:13;2.92;;;2.60;;
52248;SDS011;38541;48.130;8.378;2024-03-23T04:17:39;4.15;;;2.80;;
52248;SDS011;38541;48.130;8.378;2024-03-23T04:20:06;3.17;;;2.63;;
52248;SDS011;38541;48.130;8.378;2024-03-23T04:22:36;3.80;;;2.63;;
52248;SDS011;38541;48.130;8.378;2024-03-23T04:25:02;2.53;;;2.35;;
52248;SDS011;38541;48.130;8.378;2024-03-23T04:27:36;2.90;;;2.42;;
52248;SDS011;38541;48.130;8.378;2024-03-23T04:30:02;3.33;;;2.92;;
52248;SDS011;38541;48.130;8.378;2024-03-23T04:32:31;4.28;;;2.72;;
52248;SDS011;38541;48.130;8.378;2024-03-23T04:34:56;2.75;;;2.20;;
52248;SDS011;38541;48.130;8.378;2024-03-23T04:37:22;2.17;;;1.95;;
52248;SDS011;38541;48.130;8.378;2024-03-23T04:39:48;4.10;;;3.08;;
52248;SDS011;38541;48.130;8.378;2024-03-23T04:42:16;3.15;;;2.85;;
52248;SDS011;38541;48.130;8.378;2024-03-23T04:44:42;4.35;;;2.63;;
52248;SDS011;38541;48.130;8.378;2024-03-23T04:47:08;3.38;;;2.80;;
52248;SDS011;38541;48.130;8.378;2024-03-23T04:49:37;2.63;;;2.40;;
52248;SDS011;38541;48.130;8.378;2024-03-23T04:52:04;3.15;;;2.85;;
52248;SDS011;38541;48.130;8.378;2024-03-23T04:54:30;3.83;;;3.00;;
52248;SDS011;38541;48.130;8.378;2024-03-23T04:56:57;3.40;;;3.10;;
52248;SDS011;38541;48.130;8.378;2024-03-23T04:59:23;4.07;;;3.53;;
52248;SDS011;38541;48.130;8.378;2024-03-23T05:01:49;3.00;;;2.80;;
52248;SDS011;38541;48.130;8.378;2024-03-23T05:04:15;3.70;;;2.97;;
52248;SDS011;38541;48.130;8.378;2024-03-23T05:06:41;3.63;;;2.20;;
52248;SDS011;38541;48.130;8.378;2024-03-23T05:09:06;3.17;;;2.88;;
52248;SDS011;38541;48.130;8.378;2024-03-23T05:11:32;3.63;;;2.78;;
52248;SDS011;38541;48.130;8.378;2024-03-23T05:13:59;3.70;;;3.38;;
52248;SDS011;38541;48.130;8.378;2024-03-23T05:16:25;3.85;;;3.42;;
52248;SDS011;38541;48.130;8.378;2024-03-23T05:18:52;5.20;;;3.50;;
52248;SDS011;38541;48.130;8.378;2024-03-23T05:21:17;3.47;;;2.25;;
52248;SDS011;38541;48.130;8.378;2024-03-23T05:23:43;1.85;;;1.75;;
52248;SDS011;38541;48.130;8.378;2024-03-23T05:26:08;2.15;;;1.95;;
52248;SDS011;38541;48.130;8.378;2024-03-23T05:28:35;2.97;;;1.88;;
52248;SDS011;38541;48.130;8.378;2024-03-23T05:31:00;1.45;;;1.20;;
52248;SDS011;38541;48.130;8.378;2024-03-23T05:33:26;1.48;;;1.38;;
52248;SDS011;38541;48.130;8.378;2024-03-23T05:35:59;2.85;;;1.38;;
52248;SDS011;38541;48.130;8.378;2024-03-23T05:38:26;1.40;;;1.30;;
52248;SDS011;38541;48.130;8.378;2024-03-23T05:43:21;2.70;;;2.10;;
52248;SDS011;38541;48.130;8.378;2024-03-23T05:45:56;3.83;;;3.53;;
52248;SDS011;38541;48.130;8.378;2024-03-23T05:48:26;3.67;;;3.38;;
52248;SDS011;38541;48.130;8.378;2024-03-23T05:50:53;2.50;;;2.17;;
52248;SDS011;38541;48.130;8.378;2024-03-23T05:53:19;3.50;;;2.92;;
52248;SDS011;38541;48.130;8.378;2024-03-23T05:55:48;3.10;;;2.83;;
52248;SDS011;38541;48.130;8.378;2024-03-23T05:58:17;3.47;;;3.10;;
52248;SDS011;38541;48.130;8.378;2024-03-23T06:00:44;3.45;;;3.15;;
52248;SDS011;38541;48.130;8.378;2024-03-23T06:03:09;3.45;;;3.15;;
52248;SDS011;38541;48.130;8.378;2024-03-23T06:05:39;3.42;;;3.13;;
52248;SDS011;38541;48.130;8.378;2024-03-23T06:08:04;3.63;;;3.33;;
52248;SDS011;38541;48.130;8.378;2024-03-23T06:10:30;4.38;;;3.97;;
52248;SDS011;38541;48.130;8.378;2024-03-23T06:12:59;4.13;;;3.70;;
52248;SDS011;38541;48.130;8.378;2024-03-23T06:15:24;4.35;;;3.80;;
52248;SDS011;38541;48.130;8.378;2024-03-23T06:17:51;4.40;;;4.00;;
52248;SDS011;38541;48.130;8.378;2024-03-23T06:20:17;4.82;;;4.38;;
52248;SDS011;38541;48.130;8.378;2024-03-23T06:22:42;4.57;;;4.18;;
52248;SDS011;38541;48.130;8.378;2024-03-23T06:25:08;5.25;;;4.72;;
52248;SDS011;38541;48.130;8.378;2024-03-23T06:27:34;6.28;;;5.60;;
52248;SDS011;38541;48.130;8.378;2024-03-23T06:29:59;6.38;;;5.30;;
52248;SDS011;38541;48.130;8.378;2024-03-23T06:32:25;7.28;;;6.57;;
52248;SDS011;38541;48.130;8.378;2024-03-23T06:34:51;7.63;;;6.32;;
52248;SDS011;38541;48.130;8.378;2024-03-23T06:37:16;5.95;;;5.35;;
52248;SDS011;38541;48.130;8.378;2024-03-23T06:39:42;5.13;;;4.45;;
52248;SDS011;38541;48.130;8.378;2024-03-23T06:42:07;5.13;;;4.00;;
52248;SDS011;38541;48.130;8.378;2024-03-23T06:44:33;3.20;;;2.67;;
52248;SDS011;38541;48.130;8.378;2024-03-23T06:46:59;2.03;;;1.80;;
52248;SDS011;38541;48.130;8.378;2024-03-23T06:49:25;2.38;;;1.98;;
52248;SDS011;38541;48.130;8.378;2024-03-23T06:51:50;1.50;;;1.40;;
52248;SDS011;38541;48.130;8.378;2024-03-23T06:54:16;1.55;;;1.45;;
52248;SDS011;38541;48.130;8.378;2024-03-23T06:56:43;1.00;;;1.00;;
52248;SDS011;38541;48.130;8.378;2024-03-23T06:59:09;1.65;;;1.00;;
52248;SDS011;38541;48.130;8.378;2024-03-23T07:01:35;0.80;;;0.80;;
52248;SDS011;38541;48.130;8.378;2024-03-23T07:04:00;0.70;;;0.70;;
52248;SDS011;38541;48.130;8.378;2024-03-23T07:06:26;0.70;;;0.70;;
52248;SDS011;38541;48.130;8.378;2024-03-23T07:08:52;0.63;;;0.63;;
52248;SDS011;38541;48.130;8.378;2024-03-23T07:11:21;0.52;;;0.52;;
52248;SDS011;38541;48.130;8.378;2024-03-23T07:13:51;0.50;;;0.50;;
52248;SDS011;38541;48.130;8.378;2024-03-23T07:16:17;0.77;;;0.70;;
52248;SDS011;38541;48.130;8.378;2024-03-23T07:18:43;1.73;;;1.58;;
52248;SDS011;38541;48.130;8.378;2024-03-23T07:21:09;2.20;;;1.90;;
52248;SDS011;38541;48.130;8.378;2024-03-23T07:23:34;3.20;;;2.72;;
52248;SDS011;38541;48.130;8.378;2024-03-23T07:26:01;1.83;;;1.40;;
52248;SDS011;38541;48.130;8.378;2024-03-23T07:28:31;2.10;;;1.50;;
52248;SDS011;38541;48.130;8.378;2024-03-23T07:31:07;1.90;;;1.30;;
52248;SDS011;38541;48.130;8.378;2024-03-23T07:33:34;2.17;;;1.45;;
52248;SDS011;38541;48.130;8.378;2024-03-23T07:36:01;1.60;;;1.50;;
52248;SDS011;38541;48.130;8.378;2024-03-23T07:38:27;0.70;;;0.70;;
52248;SDS011;38541;48.130;8.378;2024-03-23T07:41:04;0.63;;;0.63;;
52248;SDS011;38541;48.130;8.378;2024-03-23T07:45:55;0.57;;;0.57;;
52248;SDS011;38541;48.130;8.378;2024-03-23T07:48:21;0.52;;;0.52;;
52248;SDS011;38541;48.130;8.378;2024-03-23T07:51:08;0.90;;;0.80;;
52248;SDS011;38541;48.130;8.378;2024-03-23T07:53:35;1.02;;;0.98;;
52248;SDS011;38541;48.130;8.378;2024-03-23T07:56:03;2.47;;;1.55;;
52248;SDS011;38541;48.130;8.378;2024-03-23T07:58:31;1.83;;;1.50;;
52248;SDS011;38541;48.130;8.378;2024-03-23T08:01:03;1.02;;;0.90;;
52248;SDS011;38541;48.130;8.378;2024-03-23T08:03:39;0.65;;;0.65;;
52248;SDS011;38541;48.130;8.378;2024-03-23T08:06:12;1.63;;;1.10;;
52248;SDS011;38541;48.130;8.378;2024-03-23T08:08:39;0.80;;;0.80;;
52248;SDS011;38541;48.130;8.378;2024-03-23T08:11:06;1.75;;;0.82;;
52248;SDS011;38541;48.130;8.378;2024-03-23T08:13:33;1.67;;;1.10;;
52248;SDS011;38541;48.130;8.378;2024-03-23T08:16:00;1.33;;;0.90;;
52248;SDS011;38541;48.130;8.378;2024-03-23T08:18:27;2.92;;;1.20;;
52248;SDS011;38541;48.130;8.378;2024-03-23T08:20:59;1.05;;;1.05;;
52248;SDS011;38541;48.130;8.378;2024-03-23T08:23:30;1.10;;;0.88;;
52248;SDS011;38541;48.130;8.378;2024-03-23T08:26:02;2.45;;;1.45;;
52248;SDS011;38541;48.130;8.378;2024-03-23T08:28:29;3.83;;;1.80;;
52248;SDS011;38541;48.130;8.378;2024-03-23T08:30:55;2.33;;;1.80;;
52248;SDS011;38541;48.130;8.378;2024-03-23T08:33:22;1.33;;;1.20;;
52248;SDS011;38541;48.130;8.378;2024-03-23T08:35:56;2.05;;;1.23;;
52248;SDS011;38541;48.130;8.378;2024-03-23T08:38:23;2.85;;;1.98;;
52248;SDS011;38541;48.130;8.378;2024-03-23T08:40:56;4.07;;;2.38;;
52248;SDS011;38541;48.130;8.378;2024-03-23T08:43:25;4.95;;;2.35;;
52248;SDS011;38541;48.130;8.378;2024-03-23T08:45:52;2.47;;;2.25;;
52248;SDS011;38541;48.130;8.378;2024-03-23T08:48:21;4.40;;;2.53;;
52248;SDS011;38541;48.130;8.378;2024-03-23T08:50:47;3.53;;;2.15;;
52248;SDS011;38541;48.130;8.378;2024-03-23T08:53:13;3.20;;;1.90;;
52248;SDS011;38541;48.130;8.378;2024-03-23T08:55:39;2.58;;;1.98;;
52248;SDS011;38541;48.130;8.378;2024-03-23T08:58:04;2.30;;;2.10;;
52248;SDS011;38541;48.130;8.378;2024-03-23T09:00:33;3.03;;;2.67;;
52248;SDS011;38541;48.130;8.378;2024-03-23T09:02:59;2.60;;;2.40;;
52248;SDS011;38541;48.130;8.378;2024-03-23T09:05:26;4.38;;;2.25;;
52248;SDS011;38541;48.130;8.378;2024-03-23T09:07:54;3.15;;;2.53;;
52248;SDS011;38541;48.130;8.378;2024-03-23T09:10:19;6.47;;;2.40;;
52248;SDS011;38541;48.130;8.378;2024-03-23T09:12:45;3.72;;;2.80;;
52248;SDS011;38541;48.130;8.378;2024-03-23T09:15:10;3.78;;;2.63;;
52248;SDS011;38541;48.130;8.378;2024-03-23T09:17:36;5.63;;;3.85;;
52248;SDS011;38541;48.130;8.378;2024-03-23T09:20:02;7.72;;;3.80;;
52248;SDS011;38541;48.130;8.378;2024-03-23T09:22:29;5.43;;;3.58;;
52248;SDS011;38541;48.130;8.378;2024-03-23T09:24:55;4.07;;;3.22;;
52248;SDS011;38541;48.130;8.378;2024-03-23T09:27:20;5.15;;;2.50;;
52248;SDS011;38541;48.130;8.378;2024-03-23T09:29:46;3.10;;;2.80;;
52248;SDS011;38541;48.130;8.378;2024-03-23T09:32:11;3.30;;;2.85;;
52248;SDS011;38541;48.130;8.378;2024-03-23T09:34:37;8.27;;;3.47;;
52248;SDS011;38541;48.130;8.378;2024-03-23T09:37:02;5.68;;;3.58;;
52248;SDS011;38541;48.130;8.378;2024-03-23T09:39:28;5.45;;;3.60;;
52248;SDS011;38541;48.130;8.378;2024-03-23T09:41:57;4.63;;;3.28;;
52248;SDS011;38541;48.130;8.378;2024-03-23T09:44:23;3.90;;;3.15;;
52248;SDS011;38541;48.130;8.378;2024-03-23T09:46:51;3.38;;;2.80;;
52248;SDS011;38541;48.130;8.378;2024-03-23T09:49:17;6.30;;;3.40;;
52248;SDS011;38541;48.130;8.378;2024-03-23T09:51:42;3.10;;;2.80;;
52248;SDS011;38541;48.130;8.378;2024-03-23T09:54:08;5.70;;;3.60;;
52248;SDS011;38541;48.130;8.378;2024-03-23T09:56:34;6.80;;;3.47;;
52248;SDS011;38541;48.130;8.378;2024-03-23T09:59:00;5.63;;;3.97;;
52248;SDS011;38541;48.130;8.378;2024-03-23T10:01:26;7.15;;;3.47;;
52248;SDS011;38541;48.130;8.378;2024-03-23T10:03:52;5.38;;;4.03;;
52248;SDS011;38541;48.130;8.378;2024-03-23T10:06:17;6.40;;;3.85;;
52248;SDS011;38541;48.130;8.378;2024-03-23T10:08:47;7.03;;;3.55;;
52248;SDS011;38541;48.130;8.378;2024-03-23T10:11:13;7.68;;;3.90;;
52248;SDS011;38541;48.130;8.378;2024-03-23T10:13:44;8.25;;;3.75;;
52248;SDS011;38541;48.130;8.378;2024-03-23T10:16:11;4.78;;;2.70;;
52248;SDS011;38541;48.130;8.378;2024-03-23T10:18:38;5.13;;;3.53;;
52248;SDS011;38541;48.130;8.378;2024-03-23T10:23:30;7.00;;;2.97;;
52248;SDS011;38541;48.130;8.378;2024-03-23T10:26:10;6.05;;;4.07;;
52248;SDS011;38541;48.130;8.378;2024-03-23T10:28:49;5.65;;;3.42;;
52248;SDS011;38541;48.130;8.378;2024-03-23T10:31:16;6.30;;;3.33;;
52248;SDS011;38541;48.130;8.378;2024-03-23T10:33:48;5.35;;;3.75;;
52248;SDS011;38541;48.130;8.378;2024-03-23T10:36:15;4.63;;;2.72;;
52248;SDS011;38541;48.130;8.378;2024-03-23T10:38:41;10.23;;;3.58;;
52248;SDS011;38541;48.130;8.378;2024-03-23T10:41:11;4.07;;;2.88;;
52248;SDS011;38541;48.130;8.378;2024-03-23T10:43:37;4.50;;;3.08;;
52248;SDS011;38541;48.130;8.378;2024-03-23T10:46:03;6.93;;;3.72;;
52248;SDS011;38541;48.130;8.378;2024-03-23T10:48:29;3.80;;;2.63;;
52248;SDS011;38541;48.130;8.378;2024-03-23T10:50:56;5.13;;;3.00;;
52248;SDS011;38541;48.130;8.378;2024-03-23T10:53:21;5.63;;;3.40;;
52248;SDS011;38541;48.130;8.378;2024-03-23T10:55:51;4.07;;;3.13;;
52248;SDS011;38541;48.130;8.378;2024-03-23T10:58:19;6.63;;;3.53;;
52248;SDS011;38541;48.130;8.378;2024-03-23T11:00:49;4.38;;;3.08;;
52248;SDS011;38541;48.130;8.378;2024-03-23T11:03:30;4.90;;;2.47;;
52248;SDS011;38541;48.130;8.378;2024-03-23T11:06:06;4.47;;;3.25;;
52248;SDS011;38541;48.130;8.378;2024-03-23T11:08:34;4.28;;;2.70;;
52248;SDS011;38541;48.130;8.378;2024-03-23T11:13:49;6.05;;;3.33;;
52248;SDS011;38541;48.130;8.378;2024-03-23T11:16:16;5.90;;;3.53;;
52248;SDS011;38541;48.130;8.378;2024-03-23T11:18:43;3.15;;;2.70;;
52248;SDS011;38541;48.130;8.378;2024-03-23T11:21:10;3.35;;;2.08;;
52248;SDS011;38541;48.130;8.378;2024-03-23T11:23:36;6.50;;;3.20;;
52248;SDS011;38541;48.130;8.378;2024-03-23T11:26:01;1.60;;;1.50;;
52248;SDS011;38541;48.130;8.378;2024-03-23T11:28:27;2.72;;;1.50;;
52248;SDS011;38541;48.130;8.378;2024-03-23T11:30:53;0.77;;;0.75;;
52248;SDS011;38541;48.130;8.378;2024-03-23T11:33:19;0.90;;;0.90;;
52248;SDS011;38541;48.130;8.378;2024-03-23T11:35:44;1.40;;;1.20;;
52248;SDS011;38541;48.130;8.378;2024-03-23T11:38:10;1.83;;;1.48;;
52248;SDS011;38541;48.130;8.378;2024-03-23T11:40:44;1.50;;;1.40;;
52248;SDS011;38541;48.130;8.378;2024-03-23T11:43:15;1.92;;;1.50;;
52248;SDS011;38541;48.130;8.378;2024-03-23T11:45:45;1.50;;;1.40;;
52248;SDS011;38541;48.130;8.378;2024-03-23T11:48:19;4.80;;;2.42;;
52248;SDS011;38541;48.130;8.378;2024-03-23T11:50:47;2.70;;;2.25;;
52248;SDS011;38541;48.130;8.378;2024-03-23T11:55:47;2.25;;;1.95;;
52248;SDS011;38541;48.130;8.378;2024-03-23T11:58:26;3.92;;;2.22;;
52248;SDS011;38541;48.130;8.378;2024-03-23T12:00:56;3.55;;;2.30;;
52248;SDS011;38541;48.130;8.378;2024-03-23T12:03:22;3.92;;;2.45;;
52248;SDS011;38541;48.130;8.378;2024-03-23T12:05:54;2.58;;;2.17;;
52248;SDS011;38541;48.130;8.378;2024-03-23T12:10:54;6.45;;;2.85;;
52248;SDS011;38541;48.130;8.378;2024-03-23T12:13:30;4.07;;;2.28;;
52248;SDS011;38541;48.130;8.378;2024-03-23T12:15:58;4.13;;;2.50;;
52248;SDS011;38541;48.130;8.378;2024-03-23T12:18:40;6.35;;;3.08;;
52248;SDS011;38541;48.130;8.378;2024-03-23T12:21:07;4.20;;;2.70;;
52248;SDS011;38541;48.130;8.378;2024-03-23T12:23:34;3.95;;;2.53;;
52248;SDS011;38541;48.130;8.378;2024-03-23T12:26:00;5.20;;;3.15;;
52248;SDS011;38541;48.130;8.378;2024-03-23T12:28:25;3.92;;;2.40;;
52248;SDS011;38541;48.130;8.378;2024-03-23T12:30:51;4.57;;;2.65;;
52248;SDS011;38541;48.130;8.378;2024-03-23T12:33:18;5.45;;;2.63;;
52248;SDS011;38541;48.130;8.378;2024-03-23T12:35:44;3.97;;;2.30;;
52248;SDS011;38541;48.130;8.378;2024-03-23T12:38:09;4.07;;;1.90;;
52248;SDS011;38541;48.130;8.378;2024-03-23T12:40:35;3.05;;;2.22;;
52248;SDS011;38541;48.130;8.378;2024-03-23T12:43:00;2.70;;;1.75;;
52248;SDS011;38541;48.130;8.378;2024-03-23T12:45:26;5.95;;;2.30;;
52248;SDS011;38541;48.130;8.378;2024-03-23T12:47:52;4.20;;;1.90;;
52248;SDS011;38541;48.130;8.378;2024-03-23T12:50:21;3.08;;;2.20;;
52248;SDS011;38541;48.130;8.378;2024-03-23T12:52:47;2.92;;;2.03;;
52248;SDS011;38541;48.130;8.378;2024-03-23T12:55:13;3.95;;;2.28;;
52248;SDS011;38541;48.130;8.378;2024-03-23T12:57:38;2.42;;;1.90;;
52248;SDS011;38541;48.130;8.378;2024-03-23T13:00:06;4.05;;;1.98;;
52248;SDS011;38541;48.130;8.378;2024-03-23T13:02:32;2.08;;;1.65;;
52248;SDS011;38541;48.130;8.378;2024-03-23T13:05:00;3.63;;;1.77;;
52248;SDS011;38541;48.130;8.378;2024-03-23T13:07:25;3.20;;;1.67;;
52248;SDS011;38541;48.130;8.378;2024-03-23T13:09:51;2.10;;;1.40;;
52248;SDS011;38541;48.130;8.378;2024-03-23T13:12:18;4.20;;;1.63;;
52248;SDS011;38541;48.130;8.378;2024-03-23T13:14:46;2.47;;;1.63;;
52248;SDS011;38541;48.130;8.378;2024-03-23T13:17:12;2.53;;;1.60;;
52248;SDS011;38541;48.130;8.378;2024-03-23T13:19:38;1.35;;;1.25;;
52248;SDS011;38541;48.130;8.378;2024-03-23T13:22:04;2.95;;;1.50;;
52248;SDS011;38541;48.130;8.378;2024-03-23T13:24:30;2.08;;;1.30;;
52248;SDS011;38541;48.130;8.378;2024-03-23T13:26:57;2.47;;;1.35;;
52248;SDS011;38541;48.130;8.378;2024-03-23T13:29:23;3.10;;;1.52;;
52248;SDS011;38541;48.130;8.378;2024-03-23T13:31:49;4.03;;;1.35;;
52248;SDS011;38541;48.130;8.378;2024-03-23T13:34:17;1.98;;;1.50;;
52248;SDS011;38541;48.130;8.378;2024-03-23T13:36:44;2.75;;;1.23;;
52248;SDS011;38541;48.130;8.378;2024-03-23T13:39:10;3.20;;;1.48;;
52248;SDS011;38541;48.130;8.378;2024-03-23T13:41:40;2.50;;;1.10;;
52248;SDS011;38541;48.130;8.378;2024-03-23T13:44:06;3.03;;;1.63;;
52248;SDS011;38541;48.130;8.378;2024-03-23T13:46:33;2.83;;;1.52;;
52248;SDS011;38541;48.130;8.378;2024-03-23T13:48:59;1.67;;;1.55;;
52248;SDS011;38541;48.130;8.378;2024-03-23T13:51:26;2.22;;;2.00;;
52248;SDS011;38541;48.130;8.378;2024-03-23T13:53:55;3.67;;;1.70;;
52248;SDS011;38541;48.130;8.378;2024-03-23T13:56:22;1.80;;;1.48;;
52248;SDS011;38541;48.130;8.378;2024-03-23T13:58:48;4.82;;;1.60;;
52248;SDS011;38541;48.130;8.378;2024-03-23T14:01:17;1.20;;;1.10;;
52248;SDS011;38541;48.130;8.378;2024-03-23T14:03:43;3.22;;;1.60;;
52248;SDS011;38541;48.130;8.378;2024-03-23T14:06:09;3.65;;;2.00;;
52248;SDS011;38541;48.130;8.378;2024-03-23T14:08:36;3.42;;;1.10;;
52248;SDS011;38541;48.130;8.378;2024-03-23T14:11:07;3.92;;;1.60;;
52248;SDS011;38541;48.130;8.378;2024-03-23T14:13:34;1.98;;;1.33;;
52248;SDS011;38541;48.130;8.378;2024-03-23T14:16:00;1.52;;;1.33;;
52248;SDS011;38541;48.130;8.378;2024-03-23T14:18:26;1.98;;;1.50;;
52248;SDS011;38541;48.130;8.378;2024-03-23T14:20:52;2.55;;;1.40;;
52248;SDS011;38541;48.130;8.378;2024-03-23T14:23:24;3.63;;;2.10;;
52248;SDS011;38541;48.130;8.378;2024-03-23T14:25:58;2.67;;;1.83;;
52248;SDS011;38541;48.130;8.378;2024-03-23T14:28:24;3.40;;;1.70;;
52248;SDS011;38541;48.130;8.378;2024-03-23T14:30:50;3.58;;;1.73;;
52248;SDS011;38541;48.130;8.378;2024-03-23T14:33:16;2.33;;;1.60;;
52248;SDS011;38541;48.130;8.378;2024-03-23T14:35:43;4.78;;;1.83;;
52248;SDS011;38541;48.130;8.378;2024-03-23T14:38:17;1.90;;;1.67;;
52248;SDS011;38541;48.130;8.378;2024-03-23T14:40:42;3.40;;;1.58;;
52248;SDS011;38541;48.130;8.378;2024-03-23T14:43:08;1.95;;;1.75;;
52248;SDS011;38541;48.130;8.378;2024-03-23T14:45:34;4.00;;;1.48;;
52248;SDS011;38541;48.130;8.378;2024-03-23T14:47:59;3.78;;;1.70;;
52248;SDS011;38541;48.130;8.378;2024-03-23T14:50:26;2.35;;;1.70;;
52248;SDS011;38541;48.130;8.378;2024-03-23T14:52:51;2.92;;;1.60;;
52248;SDS011;38541;48.130;8.378;2024-03-23T14:55:17;4.40;;;1.48;;
52248;SDS011;38541;48.130;8.378;2024-03-23T14:57:43;3.58;;;1.65;;
52248;SDS011;38541;48.130;8.378;2024-03-23T15:00:09;2.35;;;1.20;;
52248;SDS011;38541;48.130;8.378;2024-03-23T15:02:39;3.03;;;1.40;;
52248;SDS011;38541;48.130;8.378;2024-03-23T15:05:05;1.98;;;1.23;;
52248;SDS011;38541;48.130;8.378;2024-03-23T15:07:35;2.13;;;1.40;;
52248;SDS011;38541;48.130;8.378;2024-03-23T15:10:04;3.03;;;1.50;;
52248;SDS011;38541;48.130;8.378;2024-03-23T15:12:30;3.05;;;1.67;;
52248;SDS011;38541;48.130;8.378;2024-03-23T15:14:58;3.45;;;1.85;;
52248;SDS011;38541;48.130;8.378;2024-03-23T15:17:25;2.50;;;1.90;;
52248;SDS011;38541;48.130;8.378;2024-03-23T15:19:51;2.45;;;1.60;;
52248;SDS011;38541;48.130;8.378;2024-03-23T15:22:18;1.30;;;1.20;;
52248;SDS011;38541;48.130;8.378;2024-03-23T15:24:43;2.78;;;1.40;;
52248;SDS011;38541;48.130;8.378;2024-03-23T15:27:09;3.17;;;1.35;;
52248;SDS011;38541;48.130;8.378;2024-03-23T15:29:35;2.83;;;1.45;;
52248;SDS011;38541;48.130;8.378;2024-03-23T15:32:02;3.25;;;2.20;;
52248;SDS011;38541;48.130;8.378;2024-03-23T15:34:28;1.95;;;1.50;;
52248;SDS011;38541;48.130;8.378;2024-03-23T15:36:54;2.65;;;1.55;;
52248;SDS011;38541;48.130;8.378;2024-03-23T15:39:20;2.85;;;1.45;;
52248;SDS011;38541;48.130;8.378;2024-03-23T15:41:47;2.25;;;1.27;;
52248;SDS011;38541;48.130;8.378;2024-03-23T15:44:13;2.50;;;1.73;;
52248;SDS011;38541;48.130;8.378;2024-03-23T15:46:39;3.72;;;2.05;;
52248;SDS011;38541;48.130;8.378;2024-03-23T15:49:05;2.13;;;1.67;;
52248;SDS011;38541;48.130;8.378;2024-03-23T15:51:31;2.85;;;1.92;;
52248;SDS011;38541;48.130;8.378;2024-03-23T15:53:58;2.03;;;1.42;;